Beaumont, California
Current Conditions -  °F | °C
As of 7:58 AM on Saturday 25 Oct 2014 (Local Time) from KRIV Reporting Station
Scattered Clouds Scattered Clouds  
Wind Chill: 63°   Ceiling: Unl
Heat Index: 63°   Visibility: 10mi
Dew Point: 38°   Wind: 0mph
Humidity: 41%   Direction: NA
Pressure: 30.05"   Gusts: NA
Location:  33.93°N, 116.97°W
Report Text: KRIV 251458Z AUTO 00000KT 10SM SCT090 17/04 A3005 RMK AO2 SLP167 T01710036 52008
Loading
Personal Weather Stations






























Interactive Weather Map New forecast layout! Learn more

10-Day Weather Forecast

Advertisements
Track Severe Weather on mobile